Pinehill, Texas
Current Conditions -  °F | °C
As of 8:55 PM on Tuesday 21 Oct 2014 (Local Time) from KRFI Reporting Station
Haze Haze  
Wind Chill: 64°   Ceiling: Unl
Heat Index: 64°   Visibility: 5mi
Dew Point: 64°   Wind: 0mph
Humidity: 98%   Direction: NA
Pressure: 30.07"   Gusts: NA
Location:  32.1449°N, 94.7416°W
Report Text: KRFI 220155Z AUTO 00000KT 5SM BR CLR 18/18 A3007 RMK AO2 T01780175
Loading
Personal Weather Stations






























Interactive Weather Map
Tropical Storm Tracking
New forecast layout! Learn more

10-Day Weather Forecast

Advertisements
Track Severe Weather on mobile